createdAt,value
2018-04-30T00:00:54.929Z,9.80
2018-04-30T00:01:54.953Z,10.20
2018-04-30T00:02:54.973Z,9.60
2018-04-30T00:03:54.999Z,9.80
2018-04-30T00:04:55.026Z,9.00
2018-04-30T00:05:55.053Z,9.60
2018-04-30T00:06:55.071Z,9.10
2018-04-30T00:07:55.099Z,9.10
2018-04-30T00:08:55.133Z,9.60
2018-04-30T00:09:55.151Z,9.00
2018-04-30T00:10:55.165Z,9.10
2018-04-30T00:11:55.200Z,9.40
2018-04-30T00:12:55.216Z,8.80
2018-04-30T00:13:55.246Z,8.70
2018-04-30T00:14:55.265Z,9.10
2018-04-30T00:15:55.290Z,9.10
2018-04-30T00:16:55.315Z,8.80
2018-04-30T00:17:55.342Z,8.80
2018-04-30T00:18:55.373Z,8.70
2018-04-30T00:19:55.390Z,8.60
2018-04-30T00:20:55.411Z,8.80
2018-04-30T00:21:55.435Z,8.40
2018-04-30T00:22:55.461Z,9.00
2018-04-30T00:23:55.489Z,8.30
2018-04-30T00:24:55.509Z,8.20
2018-04-30T00:25:55.535Z,8.10
2018-04-30T00:26:55.565Z,8.20
2018-04-30T00:27:55.592Z,8.30
2018-04-30T00:28:55.605Z,8.50
2018-04-30T00:29:55.631Z,7.70
2018-04-30T00:30:55.658Z,7.80
2018-04-30T00:31:55.683Z,8.10
2018-04-30T00:32:55.707Z,7.80
2018-04-30T00:33:55.727Z,8.10
2018-04-30T00:34:55.759Z,8.10
2018-04-30T00:35:55.787Z,8.00
2018-04-30T00:36:55.800Z,8.10
2018-04-30T00:37:55.825Z,7.80
2018-04-30T00:38:55.849Z,7.50
2018-04-30T00:39:55.877Z,7.30
2018-04-30T00:40:55.907Z,7.50
2018-04-30T00:41:55.920Z,7.70
2018-04-30T00:42:55.949Z,7.70
2018-04-30T00:43:55.970Z,7.70
2018-04-30T00:44:55.993Z,6.90
2018-04-30T00:45:56.020Z,7.40
2018-04-30T00:46:56.045Z,7.30
2018-04-30T00:47:56.069Z,7.20
2018-04-30T00:48:56.091Z,7.10
2018-04-30T00:49:56.119Z,7.20
2018-04-30T00:50:56.161Z,7.00
2018-04-30T00:51:56.183Z,6.90
2018-04-30T00:52:56.193Z,7.50
2018-04-30T00:53:56.217Z,6.90
2018-04-30T00:54:56.238Z,7.00
2018-04-30T00:55:56.266Z,7.20
2018-04-30T00:56:56.293Z,6.80
2018-04-30T00:57:56.312Z,7.10
2018-04-30T00:58:56.333Z,7.30
2018-04-30T00:59:56.359Z,6.80
2018-04-30T01:00:56.387Z,6.90
2018-04-30T01:01:56.412Z,6.90
2018-04-30T01:02:56.437Z,7.00
2018-04-30T01:03:56.462Z,6.90
2018-04-30T01:04:56.478Z,7.40
2018-04-30T01:05:56.513Z,7.50
2018-04-30T01:06:56.530Z,7.00
2018-04-30T01:07:56.552Z,6.80
2018-04-30T01:08:56.583Z,6.90
2018-04-30T01:09:56.609Z,7.00
2018-04-30T01:10:56.631Z,6.90
2018-04-30T01:11:56.652Z,7.10
2018-04-30T01:12:56.675Z,7.00
2018-04-30T01:13:56.702Z,7.40
2018-04-30T01:14:56.728Z,6.80
2018-04-30T01:15:56.749Z,6.80
2018-04-30T01:16:56.775Z,7.00
2018-04-30T01:17:56.802Z,12.90
2018-04-30T01:18:56.823Z,8.00
2018-04-30T01:19:56.849Z,7.30
2018-04-30T01:20:56.870Z,7.10
2018-04-30T01:21:56.897Z,6.40
2018-04-30T01:22:56.919Z,7.00
2018-04-30T01:23:56.948Z,7.00
2018-04-30T01:24:56.968Z,7.10
2018-04-30T01:25:56.996Z,6.90
2018-04-30T01:26:57.024Z,7.00
2018-04-30T01:27:57.042Z,7.40
2018-04-30T01:28:57.088Z,7.10
2018-04-30T01:29:57.096Z,6.90
2018-04-30T01:30:57.112Z,6.90
2018-04-30T01:31:57.142Z,6.90
2018-04-30T01:32:57.165Z,6.90
2018-04-30T01:33:57.188Z,7.30
2018-04-30T01:34:57.211Z,7.60
2018-04-30T01:35:57.312Z,7.10
2018-04-30T01:36:57.262Z,6.70
2018-04-30T01:37:57.287Z,7.00
2018-04-30T01:38:57.324Z,7.00
2018-04-30T01:39:57.338Z,6.90
2018-04-30T01:40:57.357Z,7.10
2018-04-30T01:41:57.381Z,7.10
2018-04-30T01:42:57.411Z,6.80
2018-04-30T01:43:57.442Z,7.00
2018-04-30T01:44:57.460Z,6.60
2018-04-30T01:45:57.483Z,7.50
2018-04-30T01:46:57.507Z,7.00
2018-04-30T01:47:57.531Z,7.20
2018-04-30T01:48:57.557Z,7.50
2018-04-30T01:49:57.580Z,7.10
2018-04-30T01:50:57.601Z,7.30
2018-04-30T01:51:57.634Z,7.40
2018-04-30T01:52:57.653Z,7.20
2018-04-30T01:53:57.674Z,6.90
2018-04-30T01:54:57.701Z,7.40
2018-04-30T01:55:57.726Z,7.30
2018-04-30T01:56:57.749Z,7.60
2018-04-30T01:57:57.776Z,7.10
2018-04-30T01:58:57.797Z,6.80
2018-04-30T01:59:57.821Z,7.30
2018-04-30T02:00:57.846Z,7.00
2018-04-30T02:01:57.867Z,7.40
2018-04-30T02:02:57.896Z,6.90
2018-04-30T02:03:57.925Z,7.50
2018-04-30T02:04:57.943Z,7.60
2018-04-30T02:05:57.971Z,7.70
2018-04-30T02:06:57.994Z,8.00
2018-04-30T02:07:58.020Z,7.40
2018-04-30T02:08:58.041Z,7.60
2018-04-30T02:09:58.065Z,7.30
2018-04-30T02:10:58.091Z,7.70
2018-04-30T02:11:58.115Z,7.60
2018-04-30T02:12:58.139Z,8.20
2018-04-30T02:13:58.161Z,8.00
2018-04-30T02:14:58.192Z,8.30
2018-04-30T02:15:58.221Z,7.50
2018-04-30T02:16:58.236Z,7.90
2018-04-30T02:17:58.263Z,7.40
2018-04-30T02:18:58.285Z,7.70
2018-04-30T02:19:58.311Z,8.00
2018-04-30T02:20:58.330Z,7.80
2018-04-30T02:21:58.355Z,8.00
2018-04-30T02:22:58.388Z,7.90
2018-04-30T02:23:58.414Z,8.30
2018-04-30T02:24:58.429Z,8.00
2018-04-30T02:25:58.452Z,7.90
2018-04-30T02:26:58.483Z,7.60
2018-04-30T02:27:58.505Z,7.30
2018-04-30T02:28:58.525Z,7.90
2018-04-30T02:29:58.553Z,7.70
2018-04-30T02:30:58.576Z,8.00
2018-04-30T02:31:58.604Z,7.80
2018-04-30T02:32:58.627Z,7.60
2018-04-30T02:33:58.644Z,7.90
2018-04-30T02:34:58.669Z,8.00
2018-04-30T02:35:58.696Z,7.80
2018-04-30T02:36:58.721Z,7.80
2018-04-30T02:37:58.745Z,8.40
2018-04-30T02:38:58.764Z,8.60
2018-04-30T02:39:58.794Z,8.60
2018-04-30T02:40:58.817Z,7.80
2018-04-30T02:41:58.839Z,8.20
2018-04-30T02:42:58.868Z,8.00
2018-04-30T02:43:58.889Z,8.10
2018-04-30T02:44:58.910Z,7.60
2018-04-30T02:45:58.942Z,8.40
2018-04-30T02:46:58.959Z,8.00
2018-04-30T02:47:58.987Z,7.80
2018-04-30T02:48:59.010Z,8.60
2018-04-30T02:49:59.032Z,8.20
2018-04-30T02:50:59.058Z,8.30
2018-04-30T02:51:59.078Z,8.20
2018-04-30T02:52:59.104Z,8.00
2018-04-30T02:53:59.134Z,8.50
2018-04-30T02:54:59.154Z,8.30
2018-04-30T02:55:59.178Z,8.00
2018-04-30T02:56:59.212Z,8.50
2018-04-30T02:57:59.224Z,8.90
2018-04-30T02:58:59.249Z,8.60
2018-04-30T02:59:59.277Z,8.40
2018-04-30T03:00:59.297Z,8.90
2018-04-30T03:01:59.320Z,8.80
2018-04-30T03:02:59.344Z,8.80
2018-04-30T03:03:59.366Z,9.00
2018-04-30T03:04:59.393Z,8.90
2018-04-30T03:05:59.422Z,8.40
2018-04-30T03:06:59.437Z,8.60
2018-04-30T03:07:59.463Z,8.80
2018-04-30T03:08:59.490Z,8.90
2018-04-30T03:09:59.513Z,8.60
2018-04-30T03:10:59.534Z,8.80
2018-04-30T03:11:59.564Z,9.00
2018-04-30T03:12:59.581Z,8.70
2018-04-30T03:13:59.607Z,8.60
2018-04-30T03:14:59.631Z,9.10
2018-04-30T03:15:59.658Z,8.50
2018-04-30T03:16:59.681Z,9.00
2018-04-30T03:17:59.707Z,8.90
2018-04-30T03:18:59.730Z,9.10
2018-04-30T03:19:59.752Z,8.50
2018-04-30T03:20:59.776Z,8.30
2018-04-30T03:21:59.806Z,9.00
2018-04-30T03:22:59.826Z,8.90
2018-04-30T03:23:59.850Z,8.90
2018-04-30T03:24:59.876Z,9.00
2018-04-30T03:25:59.899Z,8.90
2018-04-30T03:26:59.923Z,8.90
2018-04-30T03:27:59.941Z,8.90
2018-04-30T03:28:59.965Z,8.70
2018-04-30T03:29:59.991Z,9.00
2018-04-30T03:31:00.020Z,8.90
2018-04-30T03:32:00.042Z,8.70
2018-04-30T03:33:00.062Z,8.50
2018-04-30T03:34:00.090Z,9.10
2018-04-30T03:35:00.114Z,8.70
2018-04-30T03:36:00.141Z,8.70
2018-04-30T03:37:00.157Z,8.00
2018-04-30T03:38:00.189Z,9.00
2018-04-30T03:39:00.209Z,8.70
2018-04-30T03:40:00.230Z,8.80
2018-04-30T03:41:00.251Z,8.60
2018-04-30T03:42:00.281Z,8.50
2018-04-30T03:43:00.305Z,9.10
2018-04-30T03:44:00.330Z,9.10
2018-04-30T03:45:00.358Z,8.60
2018-04-30T03:46:00.378Z,9.00
2018-04-30T03:47:00.400Z,8.90
2018-04-30T03:48:00.429Z,8.90
2018-04-30T03:49:00.446Z,9.40
2018-04-30T03:50:00.470Z,8.80
2018-04-30T03:51:00.495Z,8.80
2018-04-30T03:52:00.520Z,9.00
2018-04-30T03:53:00.543Z,8.80
2018-04-30T03:54:00.569Z,8.70
2018-04-30T03:55:00.591Z,9.20
2018-04-30T03:56:00.621Z,8.80
2018-04-30T03:57:00.640Z,9.10
2018-04-30T03:58:00.664Z,9.30
2018-04-30T03:59:00.690Z,9.20
2018-04-30T04:00:00.712Z,9.40
2018-04-30T04:01:00.735Z,9.40
2018-04-30T04:02:00.761Z,9.40
2018-04-30T04:03:00.852Z,9.20
2018-04-30T04:04:00.813Z,8.80
2018-04-30T04:05:00.830Z,9.50
2018-04-30T04:06:00.861Z,9.20
2018-04-30T04:07:00.882Z,9.60
2018-04-30T04:08:00.908Z,8.70
2018-04-30T04:09:00.930Z,9.40
2018-04-30T04:10:00.955Z,8.80
2018-04-30T04:11:00.974Z,9.40
2018-04-30T04:12:01.006Z,9.80
2018-04-30T04:13:01.028Z,9.30
2018-04-30T04:14:01.054Z,9.50
2018-04-30T04:15:01.080Z,10.00
2018-04-30T04:16:01.104Z,8.90
2018-04-30T04:17:01.118Z,9.90
2018-04-30T04:18:01.145Z,8.90
2018-04-30T04:19:01.183Z,9.90
2018-04-30T04:20:01.205Z,9.40
2018-04-30T04:21:01.229Z,10.00
2018-04-30T04:22:01.244Z,9.60
2018-04-30T04:23:01.268Z,9.60
2018-04-30T04:24:01.294Z,9.40
2018-04-30T04:25:01.315Z,9.40
2018-04-30T04:26:01.339Z,9.60
2018-04-30T04:27:01.368Z,9.60
2018-04-30T04:28:01.389Z,10.30
2018-04-30T04:29:01.419Z,9.90
2018-04-30T04:30:01.435Z,9.60
2018-04-30T04:31:01.473Z,9.60
2018-04-30T04:32:01.488Z,9.80
2018-04-30T04:33:01.519Z,9.30
2018-04-30T04:34:01.535Z,10.50
2018-04-30T04:35:01.568Z,10.40
2018-04-30T04:36:01.583Z,9.70
2018-04-30T04:37:01.613Z,9.60
2018-04-30T04:38:01.637Z,9.40
2018-04-30T04:39:01.661Z,9.90
2018-04-30T04:40:01.684Z,9.50
2018-04-30T04:41:01.707Z,9.60
2018-04-30T04:42:01.741Z,9.90
2018-04-30T04:43:01.753Z,9.80
2018-04-30T04:44:01.778Z,9.70
2018-04-30T04:45:01.813Z,9.80
2018-04-30T04:46:01.832Z,10.00
2018-04-30T04:47:01.852Z,9.70
2018-04-30T04:48:01.883Z,10.40
2018-04-30T04:49:01.903Z,10.30
2018-04-30T04:50:01.928Z,10.40
2018-04-30T04:51:01.953Z,10.30
2018-04-30T04:52:01.981Z,10.60
2018-04-30T04:53:01.998Z,9.60
2018-04-30T04:54:02.023Z,10.80
2018-04-30T04:55:02.049Z,10.90
2018-04-30T04:56:02.072Z,10.40
2018-04-30T04:57:02.101Z,10.20
2018-04-30T04:58:02.128Z,10.40
2018-04-30T04:59:02.150Z,10.30
2018-04-30T05:00:02.172Z,9.60
2018-04-30T05:01:02.197Z,10.30
2018-04-30T05:02:02.222Z,10.20
2018-04-30T05:03:02.243Z,10.00
2018-04-30T05:04:02.272Z,9.90
2018-04-30T05:05:02.294Z,10.00
2018-04-30T05:06:02.317Z,10.10
2018-04-30T05:07:02.342Z,10.60
2018-04-30T05:08:02.370Z,10.30
2018-04-30T05:09:02.396Z,10.20
2018-04-30T05:10:02.417Z,10.50
2018-04-30T05:11:02.445Z,9.90
2018-04-30T05:12:02.468Z,10.10
2018-04-30T05:13:02.491Z,10.10
2018-04-30T05:14:02.510Z,10.20
2018-04-30T05:15:02.541Z,10.90
2018-04-30T05:16:02.566Z,10.50
2018-04-30T05:17:02.589Z,10.10
2018-04-30T05:18:02.617Z,10.00
2018-04-30T05:19:02.638Z,10.60
2018-04-30T05:20:02.666Z,10.00
2018-04-30T05:21:02.687Z,10.90
2018-04-30T05:22:02.711Z,10.90
2018-04-30T05:23:02.735Z,10.70
2018-04-30T05:24:02.756Z,10.30
2018-04-30T05:25:02.783Z,10.80
2018-04-30T05:26:02.809Z,10.60
2018-04-30T05:27:02.832Z,10.70
2018-04-30T05:28:02.860Z,10.70
2018-04-30T05:29:02.882Z,10.20
2018-04-30T05:30:02.905Z,10.90
2018-04-30T05:31:02.940Z,10.50
2018-04-30T05:32:02.957Z,10.80
2018-04-30T05:33:02.983Z,10.60
2018-04-30T05:34:03.005Z,10.30
2018-04-30T05:35:03.038Z,10.40
2018-04-30T05:36:03.055Z,10.80
2018-04-30T05:37:03.076Z,10.20
2018-04-30T05:38:03.101Z,10.10
2018-04-30T05:39:03.131Z,10.20
2018-04-30T05:40:03.165Z,9.90
2018-04-30T05:41:03.175Z,9.90
2018-04-30T05:42:03.220Z,10.10
2018-04-30T05:43:03.224Z,10.50
2018-04-30T05:44:03.251Z,10.20
2018-04-30T05:45:03.281Z,9.90
2018-04-30T05:46:03.305Z,9.40
2018-04-30T05:47:03.328Z,9.50
2018-04-30T05:48:03.447Z,9.60
2018-04-30T05:49:03.380Z,10.20
2018-04-30T05:50:03.408Z,9.60
2018-04-30T05:51:03.434Z,9.80
2018-04-30T05:52:03.462Z,9.90
2018-04-30T05:53:03.481Z,10.20
2018-04-30T05:54:03.512Z,10.00
2018-04-30T05:55:03.530Z,9.60
2018-04-30T05:56:03.555Z,9.80
2018-04-30T05:57:03.584Z,9.70
2018-04-30T05:58:03.605Z,9.60
2018-04-30T05:59:03.629Z,9.90
2018-04-30T06:00:03.663Z,10.20
2018-04-30T06:01:03.678Z,10.30
2018-04-30T06:02:03.709Z,9.60
2018-04-30T06:03:03.742Z,9.70
2018-04-30T06:04:03.759Z,9.50
2018-04-30T06:05:03.785Z,9.70
2018-04-30T06:06:03.812Z,9.80
2018-04-30T06:07:03.834Z,9.30
2018-04-30T06:08:03.896Z,10.20
2018-04-30T06:09:03.884Z,9.60
2018-04-30T06:10:03.909Z,9.40
2018-04-30T06:11:03.950Z,9.60
2018-04-30T06:12:03.973Z,9.90
2018-04-30T06:13:03.988Z,9.20
2018-04-30T06:14:04.020Z,9.50
2018-04-30T06:15:04.043Z,9.60
2018-04-30T06:16:04.068Z,10.60
2018-04-30T06:17:04.090Z,11.90
2018-04-30T06:18:04.115Z,13.80
2018-04-30T06:19:04.143Z,13.10
2018-04-30T06:20:04.167Z,14.60
2018-04-30T06:21:04.196Z,14.80
2018-04-30T06:22:04.222Z,15.30
2018-04-30T06:23:04.248Z,16.10
2018-04-30T06:24:04.275Z,15.30
2018-04-30T06:25:04.293Z,15.10
2018-04-30T06:26:04.328Z,17.20
2018-04-30T06:27:04.349Z,15.80
2018-04-30T06:28:04.375Z,15.30
2018-04-30T06:29:04.395Z,15.30
2018-04-30T06:30:04.428Z,15.40
2018-04-30T06:31:04.450Z,16.50
2018-04-30T06:32:04.474Z,16.40
2018-04-30T06:33:04.497Z,15.50
2018-04-30T06:34:04.523Z,16.60
2018-04-30T06:35:04.547Z,15.60
2018-04-30T06:36:04.573Z,14.90
2018-04-30T06:37:04.598Z,14.90
2018-04-30T06:38:04.622Z,13.50
2018-04-30T06:39:04.647Z,13.70
2018-04-30T06:40:04.679Z,14.10
2018-04-30T06:41:04.703Z,13.60
2018-04-30T06:42:04.738Z,13.40
2018-04-30T06:43:04.756Z,13.30
2018-04-30T06:44:04.779Z,13.80
2018-04-30T06:45:04.805Z,13.70
2018-04-30T06:46:04.831Z,13.60
2018-04-30T06:47:04.869Z,13.30
2018-04-30T06:48:04.878Z,13.70
2018-04-30T06:49:04.904Z,14.00
2018-04-30T06:50:04.936Z,13.00
2018-04-30T06:51:04.961Z,13.20
2018-04-30T06:52:04.982Z,13.30
2018-04-30T06:53:05.016Z,13.10
2018-04-30T06:54:05.032Z,13.70
2018-04-30T06:55:05.059Z,13.20
2018-04-30T06:56:05.093Z,13.30
2018-04-30T06:57:05.115Z,13.40
2018-04-30T06:58:05.133Z,12.70
2018-04-30T06:59:05.166Z,12.30
2018-04-30T07:00:05.195Z,11.80
2018-04-30T07:01:05.212Z,12.40
2018-04-30T07:02:05.240Z,13.10
2018-04-30T07:03:05.266Z,12.60
2018-04-30T07:04:05.295Z,12.20
2018-04-30T07:05:05.312Z,11.90
2018-04-30T07:06:05.347Z,11.80
2018-04-30T07:07:05.367Z,11.30
2018-04-30T07:08:05.392Z,11.40
2018-04-30T07:09:05.438Z,11.80
2018-04-30T07:10:05.443Z,11.00
2018-04-30T07:11:05.472Z,11.40
2018-04-30T07:12:05.496Z,10.50
2018-04-30T07:13:05.522Z,11.20
2018-04-30T07:14:05.555Z,11.40
2018-04-30T07:15:05.578Z,11.70
2018-04-30T07:16:05.601Z,11.00
2018-04-30T07:17:05.632Z,11.30
2018-04-30T07:18:05.728Z,11.20
2018-04-30T07:19:05.691Z,10.50
2018-04-30T07:20:05.798Z,11.00
2018-04-30T07:21:05.740Z,10.70
2018-04-30T07:22:05.764Z,11.10
2018-04-30T07:23:05.787Z,11.10
2018-04-30T07:24:05.819Z,12.10
2018-04-30T07:25:05.852Z,11.80
2018-04-30T07:26:05.869Z,11.10
2018-04-30T07:27:05.891Z,11.10
2018-04-30T07:28:05.920Z,10.80
2018-04-30T07:29:05.946Z,10.70
2018-04-30T07:30:05.974Z,11.00
2018-04-30T07:31:06.004Z,11.30
2018-04-30T07:32:06.025Z,11.30
2018-04-30T07:33:06.055Z,10.20
2018-04-30T07:34:06.080Z,11.20
2018-04-30T07:35:06.104Z,10.30
2018-04-30T07:36:06.138Z,10.90
2018-04-30T07:37:06.160Z,10.30
2018-04-30T07:38:06.192Z,11.40
2018-04-30T07:39:06.247Z,11.30
2018-04-30T07:40:06.239Z,11.70
2018-04-30T07:41:06.270Z,11.00
2018-04-30T07:42:06.302Z,11.40
2018-04-30T07:43:06.324Z,11.60
2018-04-30T07:44:06.351Z,10.80
2018-04-30T07:45:06.379Z,11.30
2018-04-30T07:46:06.399Z,11.20
2018-04-30T07:47:06.433Z,10.60
2018-04-30T07:48:06.456Z,10.80
2018-04-30T07:49:06.537Z,11.10
2018-04-30T07:50:06.510Z,10.90
2018-04-30T07:51:06.543Z,10.70
2018-04-30T07:52:06.571Z,10.90
2018-04-30T07:53:06.594Z,11.50
2018-04-30T07:54:06.619Z,11.00
2018-04-30T07:55:06.648Z,10.80
2018-04-30T07:56:06.711Z,11.30
2018-04-30T07:57:06.700Z,10.90
2018-04-30T07:58:06.729Z,10.80
2018-04-30T07:59:06.754Z,11.00
2018-04-30T08:00:06.784Z,10.80
2018-04-30T08:01:06.808Z,11.10
2018-04-30T08:02:06.839Z,10.80
2018-04-30T08:03:06.889Z,11.20
2018-04-30T08:04:06.894Z,11.30
2018-04-30T08:05:06.924Z,11.60
2018-04-30T08:06:06.947Z,11.00
2018-04-30T08:07:06.974Z,11.20
2018-04-30T08:08:07.007Z,11.70
2018-04-30T08:09:07.108Z,11.00
2018-04-30T08:10:07.055Z,11.70
2018-04-30T08:11:07.086Z,11.30
2018-04-30T08:12:07.112Z,11.40
2018-04-30T08:13:07.140Z,11.10
2018-04-30T08:14:07.161Z,10.90
2018-04-30T08:15:07.203Z,11.10
2018-04-30T08:16:07.222Z,10.80
2018-04-30T08:17:07.252Z,11.50
2018-04-30T08:18:07.277Z,11.40
2018-04-30T08:19:07.303Z,11.00
2018-04-30T08:20:07.336Z,11.30
2018-04-30T08:21:07.355Z,11.10
2018-04-30T08:22:07.391Z,11.30
2018-04-30T08:23:07.419Z,11.20
2018-04-30T08:24:07.443Z,11.60
2018-04-30T08:25:07.473Z,12.10
2018-04-30T08:26:07.513Z,11.30
2018-04-30T08:27:07.523Z,11.00
2018-04-30T08:28:07.555Z,11.50
2018-04-30T08:29:07.577Z,11.40
2018-04-30T08:30:07.607Z,11.40
2018-04-30T08:31:07.639Z,11.20
2018-04-30T08:32:07.665Z,10.80
2018-04-30T08:33:07.693Z,11.00
2018-04-30T08:34:07.726Z,11.50
2018-04-30T08:35:07.747Z,11.10
2018-04-30T08:36:07.774Z,10.80
2018-04-30T08:37:07.801Z,11.50
2018-04-30T08:38:07.832Z,10.90
2018-04-30T08:39:07.858Z,11.40
2018-04-30T08:40:07.890Z,11.30
2018-04-30T08:41:07.920Z,11.50
2018-04-30T08:42:07.949Z,11.40
2018-04-30T08:43:07.983Z,11.00
2018-04-30T08:44:08.004Z,11.40
2018-04-30T08:45:08.036Z,11.00
2018-04-30T08:46:08.058Z,11.70
2018-04-30T08:47:08.092Z,11.00
2018-04-30T08:48:08.115Z,11.90
2018-04-30T08:49:08.148Z,11.70
2018-04-30T08:50:08.169Z,11.00
2018-04-30T08:51:08.198Z,11.80
2018-04-30T08:52:08.288Z,11.30
2018-04-30T08:53:08.265Z,10.80
2018-04-30T08:54:08.281Z,11.30
2018-04-30T08:55:08.312Z,11.40
2018-04-30T08:56:08.342Z,12.20
2018-04-30T08:57:08.370Z,11.70
2018-04-30T08:58:08.398Z,12.00
2018-04-30T08:59:08.428Z,11.60
2018-04-30T09:00:08.455Z,11.70
2018-04-30T09:01:08.479Z,12.00
2018-04-30T09:02:08.504Z,11.90
2018-04-30T09:03:08.542Z,12.60
2018-04-30T09:04:08.564Z,12.20
2018-04-30T09:05:08.592Z,12.20
2018-04-30T09:06:08.616Z,12.20
2018-04-30T09:07:08.654Z,12.30
2018-04-30T09:08:08.671Z,12.00
2018-04-30T09:09:08.717Z,11.50
2018-04-30T09:10:08.735Z,12.30
2018-04-30T09:11:08.758Z,12.10
2018-04-30T09:12:08.786Z,12.30
2018-04-30T09:13:08.814Z,12.20
2018-04-30T09:14:08.854Z,12.30
2018-04-30T09:15:08.878Z,11.90
2018-04-30T09:16:08.904Z,12.10
2018-04-30T09:17:08.926Z,12.00
2018-04-30T09:18:08.950Z,11.60
2018-04-30T09:19:08.987Z,12.10
2018-04-30T09:20:09.013Z,12.10
2018-04-30T09:21:09.036Z,12.30
2018-04-30T09:22:09.065Z,11.70
2018-04-30T09:23:09.090Z,12.00
2018-04-30T09:24:09.125Z,12.20
2018-04-30T09:25:09.151Z,11.60
2018-04-30T09:26:09.177Z,11.90
2018-04-30T09:27:09.204Z,12.60
2018-04-30T09:28:09.255Z,12.20
2018-04-30T09:29:09.330Z,12.10
2018-04-30T09:30:09.285Z,12.30
2018-04-30T09:31:09.316Z,12.10
2018-04-30T09:32:09.343Z,12.10
2018-04-30T09:33:09.372Z,13.10
2018-04-30T09:34:09.394Z,13.10
2018-04-30T09:35:09.424Z,12.80
2018-04-30T09:36:09.454Z,12.30
2018-04-30T09:37:09.492Z,12.20
2018-04-30T09:38:09.513Z,11.80
2018-04-30T09:39:09.548Z,12.10
2018-04-30T09:40:09.575Z,11.90
2018-04-30T09:41:09.598Z,12.20
2018-04-30T09:42:09.625Z,12.00
2018-04-30T09:43:09.652Z,12.10
2018-04-30T09:44:09.679Z,11.60
2018-04-30T09:45:09.704Z,11.90
2018-04-30T09:46:09.736Z,11.70
2018-04-30T09:47:09.759Z,12.20
2018-04-30T09:48:09.790Z,12.00
2018-04-30T09:49:09.896Z,12.60
2018-04-30T09:50:09.846Z,11.90
2018-04-30T09:51:09.870Z,11.90
2018-04-30T09:52:09.903Z,12.00
2018-04-30T09:53:09.928Z,12.10
2018-04-30T09:54:09.954Z,12.60
2018-04-30T09:55:09.982Z,12.90
2018-04-30T09:56:10.012Z,13.50
2018-04-30T09:57:10.035Z,13.00
2018-04-30T09:58:10.064Z,13.30
2018-04-30T09:59:10.091Z,13.40
2018-04-30T10:00:10.118Z,13.70
2018-04-30T10:01:10.147Z,14.40
2018-04-30T10:02:10.176Z,14.20
2018-04-30T10:03:10.198Z,15.00
2018-04-30T10:04:10.230Z,14.20
2018-04-30T10:05:10.252Z,14.30
2018-04-30T10:06:10.278Z,14.10
2018-04-30T10:07:10.311Z,14.40
2018-04-30T10:08:10.334Z,14.10
2018-04-30T10:09:10.363Z,14.80
2018-04-30T10:10:10.389Z,14.60
2018-04-30T10:11:10.420Z,14.80
2018-04-30T10:12:10.455Z,15.10
2018-04-30T10:13:10.470Z,15.30
2018-04-30T10:14:10.499Z,16.00
2018-04-30T10:15:10.532Z,15.90
2018-04-30T10:16:10.556Z,16.30
2018-04-30T10:17:10.577Z,15.90
2018-04-30T10:18:10.603Z,17.00
2018-04-30T10:19:10.640Z,17.10
2018-04-30T10:20:10.660Z,17.20
2018-04-30T10:21:10.687Z,16.80
2018-04-30T10:22:10.713Z,17.00
2018-04-30T10:23:10.739Z,17.10
2018-04-30T10:24:10.771Z,17.30
2018-04-30T10:25:10.804Z,18.10
2018-04-30T10:26:10.823Z,17.60
2018-04-30T10:27:10.847Z,17.70
2018-04-30T10:28:10.874Z,18.30
2018-04-30T10:29:10.934Z,17.80
2018-04-30T10:30:10.935Z,18.80
2018-04-30T10:31:10.961Z,18.40
2018-04-30T10:32:10.985Z,18.50
2018-04-30T10:33:11.014Z,18.80
2018-04-30T10:34:11.036Z,19.40
2018-04-30T10:35:11.067Z,19.90
2018-04-30T10:36:11.092Z,20.90
2018-04-30T10:37:11.123Z,20.50
2018-04-30T10:38:11.151Z,21.10
2018-04-30T10:39:11.171Z,29.50
2018-04-30T10:40:11.202Z,20.40
2018-04-30T10:41:11.225Z,20.00
2018-04-30T10:42:11.257Z,20.40
2018-04-30T10:43:11.281Z,18.90
2018-04-30T10:44:11.302Z,19.30
2018-04-30T10:45:11.330Z,19.70
2018-04-30T10:46:11.358Z,19.50
2018-04-30T10:47:11.393Z,19.20
2018-04-30T10:48:11.407Z,17.80
2018-04-30T10:49:11.437Z,18.60
2018-04-30T10:50:11.464Z,18.50
2018-04-30T10:51:11.542Z,18.30
2018-04-30T10:52:11.518Z,18.50
2018-04-30T10:53:11.544Z,16.80
2018-04-30T10:54:11.576Z,18.00
2018-04-30T10:55:11.596Z,16.70
2018-04-30T10:56:11.622Z,17.40
2018-04-30T10:57:11.650Z,18.20
2018-04-30T10:58:11.682Z,18.10
2018-04-30T10:59:11.706Z,18.10
2018-04-30T11:00:11.735Z,17.10
2018-04-30T11:01:11.755Z,16.30
2018-04-30T11:02:11.781Z,16.10
2018-04-30T11:03:11.810Z,16.10
2018-04-30T11:04:11.845Z,16.30
2018-04-30T11:05:11.863Z,15.80
2018-04-30T11:06:11.886Z,16.30
2018-04-30T11:07:11.917Z,16.60
2018-04-30T11:08:11.940Z,16.80
2018-04-30T11:09:11.970Z,16.70
2018-04-30T11:10:11.993Z,15.80
2018-04-30T11:11:12.024Z,16.50
2018-04-30T11:12:12.054Z,17.50
2018-04-30T11:13:12.077Z,18.30
2018-04-30T11:14:12.105Z,18.80
2018-04-30T11:15:12.132Z,18.10
2018-04-30T11:16:12.155Z,18.20
2018-04-30T11:17:12.181Z,17.70
2018-04-30T11:18:12.215Z,17.80
2018-04-30T11:19:12.240Z,17.80
2018-04-30T11:20:12.265Z,18.60
2018-04-30T11:21:12.290Z,18.30
2018-04-30T11:22:12.322Z,18.90
2018-04-30T11:23:12.345Z,17.80
2018-04-30T11:24:12.373Z,18.40
2018-04-30T11:25:12.400Z,18.70
2018-04-30T11:26:12.435Z,18.50
2018-04-30T11:27:12.454Z,17.70
2018-04-30T11:28:12.484Z,17.30
2018-04-30T11:29:12.511Z,17.50
2018-04-30T11:30:12.535Z,19.30
2018-04-30T11:31:12.566Z,18.20
2018-04-30T11:32:12.593Z,19.90
2018-04-30T11:33:12.624Z,19.80
2018-04-30T11:34:12.649Z,19.10
2018-04-30T11:35:12.677Z,18.90
2018-04-30T11:36:12.703Z,18.70
2018-04-30T11:37:12.724Z,18.70
2018-04-30T11:38:12.757Z,18.60
2018-04-30T11:39:12.780Z,18.30
2018-04-30T11:40:12.806Z,17.30
2018-04-30T11:41:12.829Z,18.90
2018-04-30T11:42:12.860Z,20.90
2018-04-30T11:43:12.893Z,21.70
2018-04-30T11:44:12.915Z,22.50
2018-04-30T11:45:12.936Z,21.70
2018-04-30T11:46:12.961Z,22.80
2018-04-30T11:47:13.038Z,23.30
2018-04-30T11:48:13.020Z,23.90
2018-04-30T11:49:13.048Z,24.40
2018-04-30T11:50:13.069Z,24.50
2018-04-30T11:51:13.094Z,25.10
2018-04-30T11:52:13.119Z,26.40
2018-04-30T11:53:13.143Z,29.00
2018-04-30T11:54:13.173Z,29.30
2018-04-30T11:55:13.200Z,30.00
2018-04-30T11:56:13.228Z,33.10
2018-04-30T11:57:13.244Z,34.70
2018-04-30T11:58:13.273Z,34.30
2018-04-30T11:59:13.294Z,43.10
2018-04-30T12:00:13.325Z,34.60
2018-04-30T12:01:13.349Z,33.30
2018-04-30T12:02:13.376Z,35.60
2018-04-30T12:03:13.400Z,35.10
2018-04-30T12:04:13.426Z,36.90
2018-04-30T12:05:13.448Z,34.80
2018-04-30T12:06:13.472Z,34.00
2018-04-30T12:07:13.502Z,32.10
2018-04-30T12:08:13.529Z,37.80
2018-04-30T12:09:13.561Z,38.50
2018-04-30T12:10:13.576Z,27.80
2018-04-30T12:11:13.604Z,29.00
2018-04-30T12:12:13.623Z,42.00
2018-04-30T12:13:13.646Z,34.40
2018-04-30T12:14:13.674Z,46.40
2018-04-30T12:15:13.698Z,31.60
2018-04-30T12:16:13.719Z,38.50
2018-04-30T12:17:13.748Z,32.70
2018-04-30T12:18:13.769Z,30.20
2018-04-30T12:19:13.794Z,49.70
2018-04-30T12:20:13.819Z,30.00
2018-04-30T12:21:13.843Z,26.40
2018-04-30T12:22:13.960Z,26.10
2018-04-30T12:23:13.892Z,27.90
2018-04-30T12:24:13.918Z,27.00
2018-04-30T12:25:13.950Z,26.40
2018-04-30T12:26:13.964Z,26.40
2018-04-30T12:27:13.993Z,29.30
2018-04-30T12:28:14.020Z,25.60
2018-04-30T12:29:14.038Z,23.90
2018-04-30T12:30:14.062Z,25.00
2018-04-30T12:31:14.088Z,25.70
2018-04-30T12:32:14.112Z,21.70
2018-04-30T12:33:14.143Z,20.10
2018-04-30T12:34:14.163Z,22.10
2018-04-30T12:35:14.184Z,20.80
2018-04-30T12:36:14.211Z,20.80
2018-04-30T12:37:14.243Z,20.60
2018-04-30T12:38:14.271Z,20.90
2018-04-30T12:39:14.282Z,17.90
2018-04-30T12:40:14.306Z,18.70
2018-04-30T12:41:14.331Z,15.60
2018-04-30T12:42:14.358Z,18.20
2018-04-30T12:43:14.382Z,16.90
2018-04-30T12:44:14.405Z,18.20
2018-04-30T12:45:14.426Z,16.50
2018-04-30T12:46:14.452Z,16.10
2018-04-30T12:47:14.475Z,16.20
2018-04-30T12:48:14.497Z,17.70
2018-04-30T12:49:14.524Z,17.90
2018-04-30T12:50:14.548Z,17.00
2018-04-30T12:51:14.567Z,18.80
2018-04-30T12:52:14.594Z,17.40
2018-04-30T12:53:14.616Z,17.00
2018-04-30T12:54:14.644Z,16.40
2018-04-30T12:55:14.665Z,18.70
2018-04-30T12:56:14.687Z,14.20
2018-04-30T12:57:14.709Z,14.90
2018-04-30T12:58:14.733Z,12.60
2018-04-30T12:59:14.759Z,11.70
2018-04-30T13:00:14.782Z,10.10
2018-04-30T13:01:14.800Z,10.40
2018-04-30T13:02:14.823Z,10.70
2018-04-30T13:03:14.846Z,9.80